sensor_id;sensor_type;location;lat;lon;timestamp;pressure;altitude;pressure_sealevel;temperature;humidity
75420;BME280;63998;52.488;13.428;2024-01-30T00:01:48;102668.59;;;3.06;67.88
75420;BME280;63998;52.488;13.428;2024-01-30T00:04:13;102671.94;;;3.05;67.82
75420;BME280;63998;52.488;13.428;2024-01-30T00:06:38;102666.41;;;2.99;67.72
75420;BME280;63998;52.488;13.428;2024-01-30T00:09:08;102664.47;;;2.95;68.28
75420;BME280;63998;52.488;13.428;2024-01-30T00:11:37;102676.50;;;2.96;68.52
75420;BME280;63998;52.488;13.428;2024-01-30T00:14:05;102671.16;;;2.93;68.51
75420;BME280;63998;52.488;13.428;2024-01-30T00:16:31;102676.09;;;2.90;68.61
75420;BME280;63998;52.488;13.428;2024-01-30T00:18:56;102664.06;;;2.89;68.89
75420;BME280;63998;52.488;13.428;2024-01-30T00:21:25;102677.88;;;2.91;69.19
75420;BME280;63998;52.488;13.428;2024-01-30T00:23:50;102670.97;;;2.90;68.98
75420;BME280;63998;52.488;13.428;2024-01-30T00:26:16;102666.63;;;2.89;68.70
75420;BME280;63998;52.488;13.428;2024-01-30T00:28:42;102679.25;;;2.86;68.43
75420;BME280;63998;52.488;13.428;2024-01-30T00:31:07;102681.81;;;2.86;68.70
75420;BME280;63998;52.488;13.428;2024-01-30T00:33:33;102674.84;;;2.83;69.10
75420;BME280;63998;52.488;13.428;2024-01-30T00:36:01;102672.16;;;2.82;68.88
75420;BME280;63998;52.488;13.428;2024-01-30T00:38:26;102676.22;;;2.78;68.68
75420;BME280;63998;52.488;13.428;2024-01-30T00:40:51;102670.19;;;2.78;69.14
75420;BME280;63998;52.488;13.428;2024-01-30T00:43:17;102671.06;;;2.78;68.97
75420;BME280;63998;52.488;13.428;2024-01-30T00:45:46;102671.75;;;2.76;69.03
75420;BME280;63998;52.488;13.428;2024-01-30T00:48:14;102669.00;;;2.73;69.03
75420;BME280;63998;52.488;13.428;2024-01-30T00:50:55;102662.91;;;2.71;69.23
75420;BME280;63998;52.488;13.428;2024-01-30T00:53:20;102666.94;;;2.67;68.96
75420;BME280;63998;52.488;13.428;2024-01-30T00:55:48;102668.59;;;2.67;69.37
75420;BME280;63998;52.488;13.428;2024-01-30T00:58:18;102670.38;;;2.68;68.80
75420;BME280;63998;52.488;13.428;2024-01-30T01:00:44;102666.03;;;2.67;68.71
75420;BME280;63998;52.488;13.428;2024-01-30T01:03:13;102669.41;;;2.66;68.54
75420;BME280;63998;52.488;13.428;2024-01-30T01:05:39;102677.88;;;2.65;68.96
75420;BME280;63998;52.488;13.428;2024-01-30T01:08:04;102676.19;;;2.65;68.65
75420;BME280;63998;52.488;13.428;2024-01-30T01:10:30;102670.97;;;2.64;68.46
75420;BME280;63998;52.488;13.428;2024-01-30T01:12:55;102671.84;;;2.64;68.83
75420;BME280;63998;52.488;13.428;2024-01-30T01:15:21;102665.84;;;2.64;68.98
75420;BME280;63998;52.488;13.428;2024-01-30T01:17:46;102669.41;;;2.66;69.15
75420;BME280;63998;52.488;13.428;2024-01-30T01:20:11;102672.75;;;2.65;69.15
75420;BME280;63998;52.488;13.428;2024-01-30T01:22:37;102673.44;;;2.62;69.19
75420;BME280;63998;52.488;13.428;2024-01-30T01:25:04;102669.97;;;2.62;69.49
75420;BME280;63998;52.488;13.428;2024-01-30T01:27:32;102672.38;;;2.59;68.37
75420;BME280;63998;52.488;13.428;2024-01-30T01:29:58;102673.94;;;2.57;68.76
75420;BME280;63998;52.488;13.428;2024-01-30T01:32:23;102669.59;;;2.56;68.69
75420;BME280;63998;52.488;13.428;2024-01-30T01:34:49;102669.50;;;2.54;68.70
75420;BME280;63998;52.488;13.428;2024-01-30T01:37:19;102665.94;;;2.52;68.57
75420;BME280;63998;52.488;13.428;2024-01-30T01:39:52;102669.78;;;2.45;68.44
75420;BME280;63998;52.488;13.428;2024-01-30T01:42:17;102663.13;;;2.36;68.09
75420;BME280;63998;52.488;13.428;2024-01-30T01:44:43;102668.56;;;2.27;68.59
75420;BME280;63998;52.488;13.428;2024-01-30T01:47:26;102670.91;;;2.24;68.75
75420;BME280;63998;52.488;13.428;2024-01-30T01:49:51;102663.03;;;2.21;69.14
75420;BME280;63998;52.488;13.428;2024-01-30T01:52:19;102664.81;;;2.22;69.25
75420;BME280;63998;52.488;13.428;2024-01-30T01:54:45;102662.81;;;2.18;69.60
75420;BME280;63998;52.488;13.428;2024-01-30T01:57:11;102666.63;;;2.11;69.46
75420;BME280;63998;52.488;13.428;2024-01-30T01:59:36;102662.22;;;2.09;70.11
75420;BME280;63998;52.488;13.428;2024-01-30T02:02:11;102658.00;;;2.09;70.51
75420;BME280;63998;52.488;13.428;2024-01-30T02:04:45;102653.53;;;2.07;71.06
75420;BME280;63998;52.488;13.428;2024-01-30T02:07:11;102653.53;;;2.07;70.86
75420;BME280;63998;52.488;13.428;2024-01-30T02:09:36;102651.75;;;2.06;70.87
75420;BME280;63998;52.488;13.428;2024-01-30T02:12:04;102662.22;;;2.09;70.87
75420;BME280;63998;52.488;13.428;2024-01-30T02:14:32;102658.88;;;2.10;70.95
75420;BME280;63998;52.488;13.428;2024-01-30T02:16:57;102665.97;;;2.14;70.80
75420;BME280;63998;52.488;13.428;2024-01-30T02:19:23;102665.06;;;2.13;70.47
75420;BME280;63998;52.488;13.428;2024-01-30T02:21:52;102658.88;;;2.10;70.41
75420;BME280;63998;52.488;13.428;2024-01-30T02:24:17;102659.44;;;2.06;70.31
75420;BME280;63998;52.488;13.428;2024-01-30T02:26:43;102663.56;;;2.04;70.83
75420;BME280;63998;52.488;13.428;2024-01-30T02:29:14;102654.69;;;1.99;70.63
75420;BME280;63998;52.488;13.428;2024-01-30T02:31:42;102654.50;;;1.96;70.65
75420;BME280;63998;52.488;13.428;2024-01-30T02:34:07;102659.41;;;1.93;70.71
75420;BME280;63998;52.488;13.428;2024-01-30T02:36:33;102652.28;;;1.89;70.77
75420;BME280;63998;52.488;13.428;2024-01-30T02:38:58;102654.63;;;1.86;70.75
75420;BME280;63998;52.488;13.428;2024-01-30T02:41:24;102650.13;;;1.82;70.78
75420;BME280;63998;52.488;13.428;2024-01-30T02:43:51;102652.56;;;1.80;71.00
75420;BME280;63998;52.488;13.428;2024-01-30T02:46:17;102662.13;;;1.83;71.36
75420;BME280;63998;52.488;13.428;2024-01-30T02:48:45;102661.34;;;1.84;71.25
75420;BME280;63998;52.488;13.428;2024-01-30T02:51:12;102651.88;;;1.83;71.57
75420;BME280;63998;52.488;13.428;2024-01-30T02:53:38;102641.66;;;1.83;71.66
75420;BME280;63998;52.488;13.428;2024-01-30T02:56:04;102642.44;;;1.82;71.41
75420;BME280;63998;52.488;13.428;2024-01-30T02:58:31;102650.31;;;1.85;71.21
75420;BME280;63998;52.488;13.428;2024-01-30T03:00:56;102643.59;;;1.87;71.50
75420;BME280;63998;52.488;13.428;2024-01-30T03:03:22;102644.81;;;1.92;71.97
75420;BME280;63998;52.488;13.428;2024-01-30T03:05:47;102642.69;;;1.98;71.97
75420;BME280;63998;52.488;13.428;2024-01-30T03:08:13;102646.22;;;2.00;72.11
75420;BME280;63998;52.488;13.428;2024-01-30T03:10:38;102640.50;;;2.04;71.97
75420;BME280;63998;52.488;13.428;2024-01-30T03:13:04;102641.50;;;2.06;72.00
75420;BME280;63998;52.488;13.428;2024-01-30T03:15:29;102636.38;;;2.06;72.02
75420;BME280;63998;52.488;13.428;2024-01-30T03:17:54;102635.59;;;2.07;71.93
75420;BME280;63998;52.488;13.428;2024-01-30T03:20:22;102635.59;;;2.07;71.77
75420;BME280;63998;52.488;13.428;2024-01-30T03:22:47;102631.47;;;2.09;71.96
75420;BME280;63998;52.488;13.428;2024-01-30T03:25:13;102636.78;;;2.12;71.90
75420;BME280;63998;52.488;13.428;2024-01-30T03:27:38;102636.78;;;2.12;71.68
75420;BME280;63998;52.488;13.428;2024-01-30T03:30:04;102635.00;;;2.11;71.89
75420;BME280;63998;52.488;13.428;2024-01-30T03:32:30;102634.22;;;2.12;71.53
75420;BME280;63998;52.488;13.428;2024-01-30T03:34:58;102634.91;;;2.09;71.49
75420;BME280;63998;52.488;13.428;2024-01-30T03:37:24;102628.13;;;2.10;71.61
75420;BME280;63998;52.488;13.428;2024-01-30T03:39:49;102631.47;;;2.09;72.00
75420;BME280;63998;52.488;13.428;2024-01-30T03:42:15;102632.25;;;2.08;71.58
75420;BME280;63998;52.488;13.428;2024-01-30T03:44:40;102627.69;;;2.04;71.54
75420;BME280;63998;52.488;13.428;2024-01-30T03:47:06;102639.72;;;2.05;71.27
75420;BME280;63998;52.488;13.428;2024-01-30T03:49:31;102634.59;;;2.05;71.84
75420;BME280;63998;52.488;13.428;2024-01-30T03:51:57;102629.47;;;2.05;72.00
75420;BME280;63998;52.488;13.428;2024-01-30T03:54:22;102631.25;;;2.06;71.88
75420;BME280;63998;52.488;13.428;2024-01-30T03:56:48;102627.91;;;2.07;72.47
75420;BME280;63998;52.488;13.428;2024-01-30T03:59:16;102630.59;;;2.08;71.86
75420;BME280;63998;52.488;13.428;2024-01-30T04:01:48;102619.44;;;2.08;71.97
75420;BME280;63998;52.488;13.428;2024-01-30T04:04:14;102619.44;;;2.08;71.55
75420;BME280;63998;52.488;13.428;2024-01-30T04:06:44;102627.22;;;2.09;71.99
75420;BME280;63998;52.488;13.428;2024-01-30T04:09:23;102628.13;;;2.10;72.02
75420;BME280;63998;52.488;13.428;2024-01-30T04:11:54;102628.91;;;2.09;72.09
75420;BME280;63998;52.488;13.428;2024-01-30T04:14:29;102631.47;;;2.09;71.91
75420;BME280;63998;52.488;13.428;2024-01-30T04:16:57;102624.66;;;2.09;71.91
75420;BME280;63998;52.488;13.428;2024-01-30T04:19:25;102631.47;;;2.09;72.14
75420;BME280;63998;52.488;13.428;2024-01-30T04:21:53;102626.34;;;2.09;71.93
75420;BME280;63998;52.488;13.428;2024-01-30T04:24:36;102629.88;;;2.11;72.04
75420;BME280;63998;52.488;13.428;2024-01-30T04:27:05;102633.25;;;2.10;71.92
75420;BME280;63998;52.488;13.428;2024-01-30T04:29:33;102634.81;;;2.08;72.22
75420;BME280;63998;52.488;13.428;2024-01-30T04:31:59;102634.81;;;2.08;72.03
75420;BME280;63998;52.488;13.428;2024-01-30T04:34:40;102633.03;;;2.07;72.13
75420;BME280;63998;52.488;13.428;2024-01-30T04:37:39;102627.69;;;2.04;72.33
75420;BME280;63998;52.488;13.428;2024-01-30T04:43:49;102617.25;;;2.01;72.23
75420;BME280;63998;52.488;13.428;2024-01-30T04:46:42;102623.47;;;2.04;72.65
75420;BME280;63998;52.488;13.428;2024-01-30T04:49:24;102622.78;;;2.07;72.53
75420;BME280;63998;52.488;13.428;2024-01-30T04:52:36;102623.00;;;2.10;72.48
75420;BME280;63998;52.488;13.428;2024-01-30T04:55:18;102611.84;;;2.09;72.77
75420;BME280;63998;52.488;13.428;2024-01-30T04:57:43;102615.38;;;2.11;72.57
75420;BME280;63998;52.488;13.428;2024-01-30T05:00:09;102618.66;;;2.09;72.30
75420;BME280;63998;52.488;13.428;2024-01-30T05:02:35;102615.31;;;2.10;72.81
75420;BME280;63998;52.488;13.428;2024-01-30T05:05:03;102629.47;;;2.05;72.53
75420;BME280;63998;52.488;13.428;2024-01-30T05:07:29;102624.13;;;2.02;72.88
75420;BME280;63998;52.488;13.428;2024-01-30T05:09:54;102623.94;;;1.99;72.63
75420;BME280;63998;52.488;13.428;2024-01-30T05:12:22;102621.19;;;1.96;72.46
75420;BME280;63998;52.488;13.428;2024-01-30T05:15:06;102627.97;;;1.95;72.81
75420;BME280;63998;52.488;13.428;2024-01-30T05:17:32;102620.19;;;1.94;73.22
75420;BME280;63998;52.488;13.428;2024-01-30T05:20:00;102623.75;;;1.96;73.21
75420;BME280;63998;52.488;13.428;2024-01-30T05:28:35;102625.31;;;1.94;73.28
75420;BME280;63998;52.488;13.428;2024-01-30T05:31:00;102617.63;;;1.94;73.71
75420;BME280;63998;52.488;13.428;2024-01-30T05:33:25;102625.31;;;1.94;74.18
75420;BME280;63998;52.488;13.428;2024-01-30T05:36:11;102620.19;;;1.94;73.84
75420;BME280;63998;52.488;13.428;2024-01-30T05:42:09;102618.63;;;1.96;74.10
75420;BME280;63998;52.488;13.428;2024-01-30T05:44:35;102617.84;;;1.97;74.38
75420;BME280;63998;52.488;13.428;2024-01-30T05:47:21;102617.06;;;1.98;74.14
75420;BME280;63998;52.488;13.428;2024-01-30T05:49:48;102615.28;;;1.97;73.79
75420;BME280;63998;52.488;13.428;2024-01-30T05:52:39;102609.25;;;1.96;74.06
75420;BME280;63998;52.488;13.428;2024-01-30T05:55:42;102613.50;;;1.96;73.69
75420;BME280;63998;52.488;13.428;2024-01-30T06:01:17;102613.69;;;1.99;73.87
75420;BME280;63998;52.488;13.428;2024-01-30T06:03:57;102610.34;;;2.00;73.86
75420;BME280;63998;52.488;13.428;2024-01-30T06:06:33;102614.78;;;2.02;74.00
75420;BME280;63998;52.488;13.428;2024-01-30T06:08:59;102613.09;;;2.03;73.90
75420;BME280;63998;52.488;13.428;2024-01-30T06:11:24;102611.22;;;2.00;73.70
75420;BME280;63998;52.488;13.428;2024-01-30T06:13:49;102619.00;;;2.02;73.88
75420;BME280;63998;52.488;13.428;2024-01-30T06:16:17;102611.44;;;2.03;73.99
75420;BME280;63998;52.488;13.428;2024-01-30T06:18:47;102613.09;;;2.03;73.71
75420;BME280;63998;52.488;13.428;2024-01-30T06:21:12;102614.78;;;2.02;73.61
75420;BME280;63998;52.488;13.428;2024-01-30T06:23:38;102613.22;;;2.04;74.29
75420;BME280;63998;52.488;13.428;2024-01-30T06:26:41;102615.66;;;2.03;73.64
75420;BME280;63998;52.488;13.428;2024-01-30T06:29:09;102608.75;;;2.02;73.91
75420;BME280;63998;52.488;13.428;2024-01-30T06:31:40;102604.53;;;2.02;73.88
75420;BME280;63998;52.488;13.428;2024-01-30T06:34:35;102605.22;;;2.00;73.85
75420;BME280;63998;52.488;13.428;2024-01-30T06:37:18;102608.56;;;1.99;74.08
75420;BME280;63998;52.488;13.428;2024-01-30T06:39:46;102605.03;;;1.97;73.71
75420;BME280;63998;52.488;13.428;2024-01-30T06:54:57;102608.56;;;1.99;74.13
75420;BME280;63998;52.488;13.428;2024-01-30T06:57:25;102609.66;;;2.02;74.38
75420;BME280;63998;52.488;13.428;2024-01-30T07:00:13;102604.06;;;2.08;74.49
75420;BME280;63998;52.488;13.428;2024-01-30T07:05:58;102609.69;;;2.15;74.40
75420;BME280;63998;52.488;13.428;2024-01-30T07:08:36;102607.78;;;2.13;74.55
75420;BME280;63998;52.488;13.428;2024-01-30T07:11:04;102612.03;;;2.12;74.08
75420;BME280;63998;52.488;13.428;2024-01-30T07:16:56;102611.34;;;2.15;73.98
75420;BME280;63998;52.488;13.428;2024-01-30T07:19:21;102613.13;;;2.16;74.20
75420;BME280;63998;52.488;13.428;2024-01-30T07:21:52;102611.66;;;2.20;74.09
75420;BME280;63998;52.488;13.428;2024-01-30T07:24:17;102606.94;;;2.26;74.17
75420;BME280;63998;52.488;13.428;2024-01-30T07:26:42;102603.88;;;2.31;74.12
75420;BME280;63998;52.488;13.428;2024-01-30T07:29:08;102597.38;;;2.36;74.21
75420;BME280;63998;52.488;13.428;2024-01-30T07:31:35;102598.56;;;2.41;74.11
75420;BME280;63998;52.488;13.428;2024-01-30T07:34:03;102597.97;;;2.45;74.21
75420;BME280;63998;52.488;13.428;2024-01-30T07:36:31;102595.00;;;2.52;74.28
75420;BME280;63998;52.488;13.428;2024-01-30T07:38:56;102593.44;;;2.55;73.70
75420;BME280;63998;52.488;13.428;2024-01-30T07:41:22;102597.19;;;2.60;73.68
75420;BME280;63998;52.488;13.428;2024-01-30T07:43:52;102591.44;;;2.50;73.23
75420;BME280;63998;52.488;13.428;2024-01-30T07:46:36;102599.94;;;2.49;72.79
75420;BME280;63998;52.488;13.428;2024-01-30T07:49:02;102594.13;;;2.52;72.81
75420;BME280;63998;52.488;13.428;2024-01-30T07:51:27;102596.78;;;2.53;73.06
75420;BME280;63998;52.488;13.428;2024-01-30T07:53:54;102590.47;;;2.62;72.96
75420;BME280;63998;52.488;13.428;2024-01-30T07:56:20;102592.22;;;2.63;72.83
75420;BME280;63998;52.488;13.428;2024-01-30T07:58:53;102593.03;;;2.62;72.59
75420;BME280;63998;52.488;13.428;2024-01-30T08:01:18;102590.66;;;2.65;72.91
75420;BME280;63998;52.488;13.428;2024-01-30T08:03:44;102593.00;;;2.75;72.83
75420;BME280;63998;52.488;13.428;2024-01-30T08:06:09;102587.28;;;2.92;73.08
75420;BME280;63998;52.488;13.428;2024-01-30T08:08:35;102584.69;;;3.05;72.82
75420;BME280;63998;52.488;13.428;2024-01-30T08:11:00;102582.38;;;3.10;72.25
75420;BME280;63998;52.488;13.428;2024-01-30T08:13:25;102579.00;;;3.11;71.21
75420;BME280;63998;52.488;13.428;2024-01-30T08:15:51;102589.16;;;3.22;71.48
75420;BME280;63998;52.488;13.428;2024-01-30T08:18:16;102581.44;;;3.22;70.44
75420;BME280;63998;52.488;13.428;2024-01-30T08:20:42;102576.25;;;3.36;71.11
75420;BME280;63998;52.488;13.428;2024-01-30T08:23:07;102576.66;;;3.42;70.82
75420;BME280;63998;52.488;13.428;2024-01-30T08:25:33;102576.84;;;3.45;70.31
75420;BME280;63998;52.488;13.428;2024-01-30T08:27:58;102573.31;;;3.57;69.71
75420;BME280;63998;52.488;13.428;2024-01-30T08:30:23;102571.53;;;3.71;69.56
75420;BME280;63998;52.488;13.428;2024-01-30T08:32:49;102570.13;;;3.76;68.96
75420;BME280;63998;52.488;13.428;2024-01-30T08:35:14;102582.91;;;3.89;69.08
75420;BME280;63998;52.488;13.428;2024-01-30T08:37:41;102573.72;;;4.08;68.84
75420;BME280;63998;52.488;13.428;2024-01-30T08:40:07;102567.59;;;4.06;68.21
75420;BME280;63998;52.488;13.428;2024-01-30T08:42:33;102571.66;;;4.17;68.22
75420;BME280;63998;52.488;13.428;2024-01-30T08:44:59;102561.41;;;4.33;67.93
75420;BME280;63998;52.488;13.428;2024-01-30T08:47:24;102571.25;;;4.55;68.13
75420;BME280;63998;52.488;13.428;2024-01-30T08:49:50;102554.50;;;4.78;67.90
75420;BME280;63998;52.488;13.428;2024-01-30T08:52:16;102559.81;;;4.97;66.42
75420;BME280;63998;52.488;13.428;2024-01-30T08:54:41;102556.16;;;5.24;65.98
75420;BME280;63998;52.488;13.428;2024-01-30T08:57:07;102562.28;;;5.43;65.77
75420;BME280;63998;52.488;13.428;2024-01-30T08:59:32;102562.50;;;5.47;64.44
75420;BME280;63998;52.488;13.428;2024-01-30T09:01:58;102555.66;;;5.48;64.13
75420;BME280;63998;52.488;13.428;2024-01-30T09:04:24;102562.75;;;5.52;64.18
75420;BME280;63998;52.488;13.428;2024-01-30T09:06:50;102564.03;;;5.44;64.77
75420;BME280;63998;52.488;13.428;2024-01-30T09:09:16;102561.22;;;5.39;65.45
75420;BME280;63998;52.488;13.428;2024-01-30T09:11:45;102555.97;;;5.37;65.51
75420;BME280;63998;52.488;13.428;2024-01-30T09:14:10;102556.63;;;5.33;66.89
75420;BME280;63998;52.488;13.428;2024-01-30T09:16:37;102559.69;;;5.26;66.95
75420;BME280;63998;52.488;13.428;2024-01-30T09:19:02;102563.69;;;5.21;66.79
75420;BME280;63998;52.488;13.428;2024-01-30T09:21:27;102557.75;;;5.22;66.09
75420;BME280;63998;52.488;13.428;2024-01-30T09:23:54;102565.56;;;5.24;66.59
75420;BME280;63998;52.488;13.428;2024-01-30T09:26:19;102565.66;;;5.25;66.87
75420;BME280;63998;52.488;13.428;2024-01-30T09:28:45;102566.91;;;5.33;66.38
75420;BME280;63998;52.488;13.428;2024-01-30T09:31:10;102567.56;;;5.46;66.34
75420;BME280;63998;52.488;13.428;2024-01-30T09:33:36;102568.06;;;5.55;66.20
75420;BME280;63998;52.488;13.428;2024-01-30T09:36:01;102560.88;;;5.65;66.06
75420;BME280;63998;52.488;13.428;2024-01-30T09:38:27;102557.88;;;5.74;65.36
75420;BME280;63998;52.488;13.428;2024-01-30T09:40:54;102557.06;;;5.75;65.13
75420;BME280;63998;52.488;13.428;2024-01-30T09:43:23;102560.59;;;5.77;66.00
75420;BME280;63998;52.488;13.428;2024-01-30T09:45:50;102550.28;;;5.77;65.52
75420;BME280;63998;52.488;13.428;2024-01-30T09:48:16;102557.34;;;5.81;65.67
75420;BME280;63998;52.488;13.428;2024-01-30T09:50:41;102556.25;;;5.92;66.68
75420;BME280;63998;52.488;13.428;2024-01-30T09:53:08;102552.34;;;5.84;65.64
75420;BME280;63998;52.488;13.428;2024-01-30T09:55:35;102556.09;;;5.89;66.44
75420;BME280;63998;52.488;13.428;2024-01-30T09:58:01;102546.56;;;6.04;65.86
75420;BME280;63998;52.488;13.428;2024-01-30T10:00:26;102560.84;;;6.16;65.26
75420;BME280;63998;52.488;13.428;2024-01-30T10:02:52;102549.66;;;6.15;65.00
75420;BME280;63998;52.488;13.428;2024-01-30T10:05:19;102551.13;;;6.28;66.06
75420;BME280;63998;52.488;13.428;2024-01-30T10:07:53;102548.94;;;6.18;64.63
75420;BME280;63998;52.488;13.428;2024-01-30T10:10:22;102545.97;;;6.28;64.75
75420;BME280;63998;52.488;13.428;2024-01-30T10:12:47;102535.94;;;6.34;64.81
75420;BME280;63998;52.488;13.428;2024-01-30T10:15:17;102548.03;;;6.35;64.03
75420;BME280;63998;52.488;13.428;2024-01-30T10:17:44;102542.56;;;6.46;64.81
75420;BME280;63998;52.488;13.428;2024-01-30T10:20:10;102537.25;;;6.43;64.49
75420;BME280;63998;52.488;13.428;2024-01-30T10:22:36;102535.56;;;6.44;64.28
75420;BME280;63998;52.488;13.428;2024-01-30T10:25:01;102532.53;;;6.53;64.94
75420;BME280;63998;52.488;13.428;2024-01-30T10:27:28;102532.38;;;6.49;65.34
75420;BME280;63998;52.488;13.428;2024-01-30T10:29:55;102525.47;;;6.48;65.07
75420;BME280;63998;52.488;13.428;2024-01-30T10:32:20;102520.03;;;6.42;64.47
75420;BME280;63998;52.488;13.428;2024-01-30T10:34:46;102513.81;;;6.39;65.04
75420;BME280;63998;52.488;13.428;2024-01-30T10:37:12;102520.75;;;6.40;63.99
75420;BME280;63998;52.488;13.428;2024-01-30T10:39:40;102515.94;;;6.47;63.04
75420;BME280;63998;52.488;13.428;2024-01-30T10:42:07;102517.78;;;6.50;63.23
75420;BME280;63998;52.488;13.428;2024-01-30T10:45:05;102519.09;;;6.60;63.50
75420;BME280;63998;52.488;13.428;2024-01-30T10:47:34;102516.59;;;6.61;62.79
75420;BME280;63998;52.488;13.428;2024-01-30T10:50:00;102512.31;;;6.62;62.50
75420;BME280;63998;52.488;13.428;2024-01-30T10:52:28;102511.72;;;6.67;60.88
75420;BME280;63998;52.488;13.428;2024-01-30T10:54:56;102511.72;;;6.67;61.66
75420;BME280;63998;52.488;13.428;2024-01-30T10:57:27;102512.66;;;6.69;62.00
75420;BME280;63998;52.488;13.428;2024-01-30T10:59:56;102515.38;;;6.72;60.61
75420;BME280;63998;52.488;13.428;2024-01-30T11:02:23;102505.63;;;6.84;60.20
75420;BME280;63998;52.488;13.428;2024-01-30T11:04:49;102511.59;;;6.83;59.96
75420;BME280;63998;52.488;13.428;2024-01-30T11:07:18;102512.84;;;6.92;59.48
75420;BME280;63998;52.488;13.428;2024-01-30T11:10:04;102516.50;;;6.97;60.22
75420;BME280;63998;52.488;13.428;2024-01-30T11:12:37;102509.41;;;6.93;59.61
75420;BME280;63998;52.488;13.428;2024-01-30T11:15:06;102512.94;;;6.95;59.21
75420;BME280;63998;52.488;13.428;2024-01-30T11:20:21;102503.31;;;6.91;59.33
75420;BME280;63998;52.488;13.428;2024-01-30T11:22:48;102499.56;;;6.84;59.78
75420;BME280;63998;52.488;13.428;2024-01-30T11:25:17;102502.22;;;6.85;60.02
75420;BME280;63998;52.488;13.428;2024-01-30T11:27:44;102504.53;;;6.99;59.52
75420;BME280;63998;52.488;13.428;2024-01-30T11:35:54;102496.84;;;7.00;59.72
75420;BME280;63998;52.488;13.428;2024-01-30T11:38:19;102491.47;;;6.96;58.66
75420;BME280;63998;52.488;13.428;2024-01-30T11:40:48;102495.56;;;6.91;60.34
75420;BME280;63998;52.488;13.428;2024-01-30T11:43:25;102494.63;;;6.89;59.23
75420;BME280;63998;52.488;13.428;2024-01-30T11:45:52;102489.63;;;6.93;58.14
75420;BME280;63998;52.488;13.428;2024-01-30T11:48:18;102494.91;;;7.14;58.99
75420;BME280;63998;52.488;13.428;2024-01-30T11:50:43;102486.84;;;7.27;59.02
75420;BME280;63998;52.488;13.428;2024-01-30T11:53:12;102493.91;;;7.31;59.56
75420;BME280;63998;52.488;13.428;2024-01-30T11:55:37;102489.25;;;7.43;59.34
75420;BME280;63998;52.488;13.428;2024-01-30T11:58:03;102490.78;;;7.38;58.62
75420;BME280;63998;52.488;13.428;2024-01-30T12:00:29;102487.91;;;7.51;58.34
75420;BME280;63998;52.488;13.428;2024-01-30T12:02:56;102479.56;;;7.58;57.71
75420;BME280;63998;52.488;13.428;2024-01-30T12:05:22;102474.75;;;7.66;57.43
75420;BME280;63998;52.488;13.428;2024-01-30T12:07:47;102475.91;;;7.95;58.83
75420;BME280;63998;52.488;13.428;2024-01-30T12:10:13;102474.00;;;8.33;58.72
75420;BME280;63998;52.488;13.428;2024-01-30T12:12:39;102471.47;;;8.34;56.25
75420;BME280;63998;52.488;13.428;2024-01-30T12:15:06;102473.84;;;8.29;56.00
75420;BME280;63998;52.488;13.428;2024-01-30T12:17:33;102470.59;;;8.34;57.83
75420;BME280;63998;52.488;13.428;2024-01-30T12:20:09;102471.22;;;8.07;58.67
75420;BME280;63998;52.488;13.428;2024-01-30T12:22:46;102465.59;;;8.17;58.00
75420;BME280;63998;52.488;13.428;2024-01-30T12:25:17;102463.88;;;8.18;56.74
75420;BME280;63998;52.488;13.428;2024-01-30T12:27:43;102457.94;;;8.20;57.31
75420;BME280;63998;52.488;13.428;2024-01-30T12:30:13;102459.72;;;8.21;58.29
75420;BME280;63998;52.488;13.428;2024-01-30T12:32:44;102452.25;;;8.29;58.05
75420;BME280;63998;52.488;13.428;2024-01-30T12:35:14;102447.84;;;8.26;58.29
75420;BME280;63998;52.488;13.428;2024-01-30T12:37:41;102441.00;;;8.28;57.72
75420;BME280;63998;52.488;13.428;2024-01-30T12:40:08;102433.72;;;8.39;57.13
75420;BME280;63998;52.488;13.428;2024-01-30T12:42:34;102433.94;;;8.69;57.25
75420;BME280;63998;52.488;13.428;2024-01-30T12:45:02;102435.16;;;8.79;56.15
75420;BME280;63998;52.488;13.428;2024-01-30T12:47:27;102432.41;;;8.74;57.29
75420;BME280;63998;52.488;13.428;2024-01-30T12:49:53;102425.47;;;8.73;57.24
75420;BME280;63998;52.488;13.428;2024-01-30T12:52:20;102417.31;;;8.86;57.39
75420;BME280;63998;52.488;13.428;2024-01-30T12:54:46;102415.75;;;8.91;58.12
75420;BME280;63998;52.488;13.428;2024-01-30T12:57:11;102414.00;;;8.90;56.60
75420;BME280;63998;52.488;13.428;2024-01-30T12:59:37;102408.63;;;9.10;56.16
75420;BME280;63998;52.488;13.428;2024-01-30T13:02:03;102406.00;;;9.33;57.08
75420;BME280;63998;52.488;13.428;2024-01-30T13:04:28;102401.81;;;9.37;55.83
75420;BME280;63998;52.488;13.428;2024-01-30T13:06:54;102410.19;;;9.30;57.62
75420;BME280;63998;52.488;13.428;2024-01-30T13:09:20;102406.31;;;9.43;57.59
75420;BME280;63998;52.488;13.428;2024-01-30T13:11:45;102410.41;;;9.36;56.52
75420;BME280;63998;52.488;13.428;2024-01-30T13:14:10;102411.06;;;9.30;55.87
75420;BME280;63998;52.488;13.428;2024-01-30T13:16:36;102407.47;;;9.25;55.84
75420;BME280;63998;52.488;13.428;2024-01-30T13:19:02;102405.00;;;9.30;56.48
75420;BME280;63998;52.488;13.428;2024-01-30T13:21:27;102398.63;;;9.20;56.54
75420;BME280;63998;52.488;13.428;2024-01-30T13:23:53;102406.59;;;9.25;56.25
75420;BME280;63998;52.488;13.428;2024-01-30T13:26:20;102403.16;;;9.26;56.25
75420;BME280;63998;52.488;13.428;2024-01-30T13:28:45;102396.22;;;9.25;57.67
75420;BME280;63998;52.488;13.428;2024-01-30T13:31:14;102394.34;;;9.21;56.87
75420;BME280;63998;52.488;13.428;2024-01-30T13:34:59;102386.78;;;9.02;57.27
75420;BME280;63998;52.488;13.428;2024-01-30T13:44:35;102372.53;;;8.90;59.92
75420;BME280;63998;52.488;13.428;2024-01-30T13:53:56;102394.50;;;8.76;61.45
75420;BME280;63998;52.488;13.428;2024-01-30T13:56:47;102398.81;;;8.76;60.35